sensor_id;sensor_type;location;lat;lon;timestamp;pressure;altitude;pressure_sealevel;temperature;humidity
66627;BME280;53498;50.422;14.912;2023-10-31T00:01:22;96930.66;;;14.49;100.00
66627;BME280;53498;50.422;14.912;2023-10-31T00:03:48;96926.28;;;14.49;100.00
66627;BME280;53498;50.422;14.912;2023-10-31T00:06:13;96919.34;;;14.48;100.00
66627;BME280;53498;50.422;14.912;2023-10-31T00:08:39;96914.44;;;14.42;100.00
66627;BME280;53498;50.422;14.912;2023-10-31T00:11:04;96910.09;;;14.41;100.00
66627;BME280;53498;50.422;14.912;2023-10-31T00:13:30;96910.09;;;14.41;100.00
66627;BME280;53498;50.422;14.912;2023-10-31T00:15:55;96903.28;;;14.39;100.00
66627;BME280;53498;50.422;14.912;2023-10-31T00:18:21;96906.88;;;14.36;100.00
66627;BME280;53498;50.422;14.912;2023-10-31T00:20:47;96912.28;;;14.33;100.00
66627;BME280;53498;50.422;14.912;2023-10-31T00:23:14;96907.03;;;14.33;100.00
66627;BME280;53498;50.422;14.912;2023-10-31T00:25:40;96908.03;;;14.30;100.00
66627;BME280;53498;50.422;14.912;2023-10-31T00:28:06;96900.09;;;14.32;100.00
66627;BME280;53498;50.422;14.912;2023-10-31T00:30:31;96894.88;;;14.32;100.00
66627;BME280;53498;50.422;14.912;2023-10-31T00:32:57;96898.41;;;14.31;100.00
66627;BME280;53498;50.422;14.912;2023-10-31T00:35:23;96888.88;;;14.30;100.00
66627;BME280;53498;50.422;14.912;2023-10-31T00:37:48;96897.81;;;14.26;100.00
66627;BME280;53498;50.422;14.912;2023-10-31T00:40:15;96889.34;;;14.21;100.00
66627;BME280;53498;50.422;14.912;2023-10-31T00:42:41;96892.31;;;14.13;100.00
66627;BME280;53498;50.422;14.912;2023-10-31T00:45:08;96875.03;;;14.10;100.00
66627;BME280;53498;50.422;14.912;2023-10-31T00:47:34;96876.91;;;14.07;100.00
66627;BME280;53498;50.422;14.912;2023-10-31T00:50:00;96869.03;;;14.08;100.00
66627;BME280;53498;50.422;14.912;2023-10-31T00:52:25;96866.31;;;14.10;100.00
66627;BME280;53498;50.422;14.912;2023-10-31T00:54:51;96865.56;;;14.08;100.00
66627;BME280;53498;50.422;14.912;2023-10-31T00:57:16;96865.63;;;14.06;100.00
66627;BME280;53498;50.422;14.912;2023-10-31T00:59:42;96858.88;;;14.02;100.00
66627;BME280;53498;50.422;14.912;2023-10-31T01:02:08;96862.25;;;14.04;100.00
66627;BME280;53498;50.422;14.912;2023-10-31T01:04:36;96871.84;;;14.04;100.00
66627;BME280;53498;50.422;14.912;2023-10-31T01:07:02;96863.16;;;14.03;100.00
66627;BME280;53498;50.422;14.912;2023-10-31T01:09:27;96861.47;;;14.02;100.00
66627;BME280;53498;50.422;14.912;2023-10-31T01:11:53;96860.50;;;14.05;100.00
66627;BME280;53498;50.422;14.912;2023-10-31T01:14:20;96853.09;;;13.96;100.00
66627;BME280;53498;50.422;14.912;2023-10-31T01:16:45;96847.03;;;13.95;100.00
66627;BME280;53498;50.422;14.912;2023-10-31T01:19:11;96842.69;;;13.94;100.00
66627;BME280;53498;50.422;14.912;2023-10-31T01:21:36;96841.78;;;13.95;100.00
66627;BME280;53498;50.422;14.912;2023-10-31T01:24:02;96843.41;;;13.98;100.00
66627;BME280;53498;50.422;14.912;2023-10-31T01:26:28;96841.56;;;14.00;100.00
66627;BME280;53498;50.422;14.912;2023-10-31T01:28:53;96855.41;;;14.02;100.00
66627;BME280;53498;50.422;14.912;2023-10-31T01:31:19;96859.78;;;14.01;100.00
66627;BME280;53498;50.422;14.912;2023-10-31T01:33:45;96862.56;;;13.98;100.00
66627;BME280;53498;50.422;14.912;2023-10-31T01:36:11;96869.56;;;13.98;100.00
66627;BME280;53498;50.422;14.912;2023-10-31T01:38:38;96874.06;;;13.94;100.00
66627;BME280;53498;50.422;14.912;2023-10-31T01:41:04;96880.22;;;13.93;100.00
66627;BME280;53498;50.422;14.912;2023-10-31T01:43:34;96872.22;;;13.96;100.00
66627;BME280;53498;50.422;14.912;2023-10-31T01:45:59;96878.00;;;13.85;100.00
66627;BME280;53498;50.422;14.912;2023-10-31T01:48:27;96873.66;;;13.84;100.00
66627;BME280;53498;50.422;14.912;2023-10-31T01:50:54;96863.16;;;13.86;100.00
66627;BME280;53498;50.422;14.912;2023-10-31T01:53:19;96870.84;;;13.89;100.00
66627;BME280;53498;50.422;14.912;2023-10-31T01:55:46;96883.22;;;13.85;100.00
66627;BME280;53498;50.422;14.912;2023-10-31T01:58:11;96879.28;;;13.94;100.00
66627;BME280;53498;50.422;14.912;2023-10-31T02:00:40;96879.72;;;13.85;100.00
66627;BME280;53498;50.422;14.912;2023-10-31T02:03:08;96885.28;;;13.79;100.00
66627;BME280;53498;50.422;14.912;2023-10-31T02:05:34;96892.34;;;13.77;100.00
66627;BME280;53498;50.422;14.912;2023-10-31T02:08:01;96890.81;;;13.73;100.00
66627;BME280;53498;50.422;14.912;2023-10-31T02:10:28;96876.16;;;13.69;100.00
66627;BME280;53498;50.422;14.912;2023-10-31T02:12:53;96869.25;;;13.68;100.00
66627;BME280;53498;50.422;14.912;2023-10-31T02:15:19;96870.19;;;13.67;100.00
66627;BME280;53498;50.422;14.912;2023-10-31T02:17:44;96875.56;;;13.63;100.00
66627;BME280;53498;50.422;14.912;2023-10-31T02:20:10;96874.63;;;13.64;100.00
66627;BME280;53498;50.422;14.912;2023-10-31T02:22:36;96877.25;;;13.64;100.00
66627;BME280;53498;50.422;14.912;2023-10-31T02:25:02;96882.81;;;13.76;100.00
66627;BME280;53498;50.422;14.912;2023-10-31T02:27:27;96872.66;;;13.70;100.00
66627;BME280;53498;50.422;14.912;2023-10-31T02:29:59;96866.78;;;13.64;100.00
66627;BME280;53498;50.422;14.912;2023-10-31T02:32:24;96861.56;;;13.64;100.00
66627;BME280;53498;50.422;14.912;2023-10-31T02:34:50;96861.56;;;13.64;100.00
66627;BME280;53498;50.422;14.912;2023-10-31T02:37:15;96862.13;;;13.71;100.00
66627;BME280;53498;50.422;14.912;2023-10-31T02:39:42;96871.72;;;13.71;100.00
66627;BME280;53498;50.422;14.912;2023-10-31T02:42:07;96868.59;;;13.81;100.00
66627;BME280;53498;50.422;14.912;2023-10-31T02:44:33;96876.13;;;13.87;100.00
66627;BME280;53498;50.422;14.912;2023-10-31T02:46:58;96874.03;;;13.77;100.00
66627;BME280;53498;50.422;14.912;2023-10-31T02:49:28;96868.97;;;13.74;100.00
66627;BME280;53498;50.422;14.912;2023-10-31T02:51:53;96881.94;;;13.75;100.00
66627;BME280;53498;50.422;14.912;2023-10-31T02:54:19;96879.63;;;13.69;100.00
66627;BME280;53498;50.422;14.912;2023-10-31T02:56:45;96879.91;;;13.63;100.00
66627;BME280;53498;50.422;14.912;2023-10-31T02:59:10;96891.09;;;13.67;100.00
66627;BME280;53498;50.422;14.912;2023-10-31T03:01:36;96887.69;;;13.64;100.00
66627;BME280;53498;50.422;14.912;2023-10-31T03:04:02;96896.47;;;13.63;100.00
66627;BME280;53498;50.422;14.912;2023-10-31T03:06:27;96899.41;;;13.56;100.00
66627;BME280;53498;50.422;14.912;2023-10-31T03:08:53;96902.94;;;13.55;100.00
66627;BME280;53498;50.422;14.912;2023-10-31T03:11:25;96902.88;;;13.56;100.00
66627;BME280;53498;50.422;14.912;2023-10-31T03:13:51;96902.81;;;13.58;100.00
66627;BME280;53498;50.422;14.912;2023-10-31T03:16:18;96902.25;;;13.51;100.00
66627;BME280;53498;50.422;14.912;2023-10-31T03:18:46;96906.19;;;13.41;100.00
66627;BME280;53498;50.422;14.912;2023-10-31T03:21:11;96921.00;;;13.40;100.00
66627;BME280;53498;50.422;14.912;2023-10-31T03:23:37;96927.53;;;13.32;100.00
66627;BME280;53498;50.422;14.912;2023-10-31T03:26:03;96934.56;;;13.30;100.00
66627;BME280;53498;50.422;14.912;2023-10-31T03:28:31;96932.88;;;13.29;100.00
66627;BME280;53498;50.422;14.912;2023-10-31T03:30:57;96934.75;;;13.25;100.00
66627;BME280;53498;50.422;14.912;2023-10-31T03:33:22;96940.72;;;13.08;100.00
66627;BME280;53498;50.422;14.912;2023-10-31T03:35:49;96935.63;;;13.05;100.00
66627;BME280;53498;50.422;14.912;2023-10-31T03:38:14;96942.81;;;13.00;100.00
66627;BME280;53498;50.422;14.912;2023-10-31T03:40:40;96948.00;;;13.00;100.00
66627;BME280;53498;50.422;14.912;2023-10-31T03:43:06;96950.19;;;12.90;100.00
66627;BME280;53498;50.422;14.912;2023-10-31T03:45:32;96936.56;;;12.84;100.00
66627;BME280;53498;50.422;14.912;2023-10-31T03:47:58;96935.94;;;12.79;100.00
66627;BME280;53498;50.422;14.912;2023-10-31T03:50:23;96926.38;;;12.78;100.00
66627;BME280;53498;50.422;14.912;2023-10-31T03:52:49;96944.78;;;12.74;100.00
66627;BME280;53498;50.422;14.912;2023-10-31T03:55:15;96949.63;;;12.63;100.00
66627;BME280;53498;50.422;14.912;2023-10-31T03:57:40;96957.50;;;12.62;100.00
66627;BME280;53498;50.422;14.912;2023-10-31T04:00:06;96958.59;;;12.56;100.00
66627;BME280;53498;50.422;14.912;2023-10-31T04:02:33;96959.72;;;12.50;100.00
66627;BME280;53498;50.422;14.912;2023-10-31T04:05:05;96969.28;;;12.50;100.00
66627;BME280;53498;50.422;14.912;2023-10-31T04:07:31;96976.59;;;12.42;100.00
66627;BME280;53498;50.422;14.912;2023-10-31T04:09:56;96977.44;;;12.42;100.00
66627;BME280;53498;50.422;14.912;2023-10-31T04:12:22;96976.84;;;12.36;100.00
66627;BME280;53498;50.422;14.912;2023-10-31T04:14:47;96968.22;;;12.34;100.00
66627;BME280;53498;50.422;14.912;2023-10-31T04:17:13;96966.03;;;12.45;100.00
66627;BME280;53498;50.422;14.912;2023-10-31T04:19:38;96958.22;;;12.45;100.00
66627;BME280;53498;50.422;14.912;2023-10-31T04:22:04;96972.47;;;12.36;100.00
66627;BME280;53498;50.422;14.912;2023-10-31T04:24:29;96976.38;;;12.26;100.00
66627;BME280;53498;50.422;14.912;2023-10-31T04:26:55;96966.78;;;12.26;100.00
66627;BME280;53498;50.422;14.912;2023-10-31T04:29:20;96965.09;;;12.25;100.00
66627;BME280;53498;50.422;14.912;2023-10-31T04:31:46;96963.38;;;12.24;100.00
66627;BME280;53498;50.422;14.912;2023-10-31T04:34:12;96967.44;;;12.32;100.00
66627;BME280;53498;50.422;14.912;2023-10-31T04:36:37;96973.81;;;12.24;100.00
66627;BME280;53498;50.422;14.912;2023-10-31T04:39:03;96969.69;;;12.19;100.00
66627;BME280;53498;50.422;14.912;2023-10-31T04:41:28;96968.78;;;12.20;100.00
66627;BME280;53498;50.422;14.912;2023-10-31T04:43:54;96963.25;;;12.27;100.00
66627;BME280;53498;50.422;14.912;2023-10-31T04:46:19;96965.00;;;12.27;100.00
66627;BME280;53498;50.422;14.912;2023-10-31T04:48:45;96970.31;;;12.25;100.00
66627;BME280;53498;50.422;14.912;2023-10-31T04:51:10;96964.31;;;12.44;100.00
66627;BME280;53498;50.422;14.912;2023-10-31T04:53:36;96960.94;;;12.42;100.00
66627;BME280;53498;50.422;14.912;2023-10-31T04:56:02;96977.91;;;12.30;100.00
66627;BME280;53498;50.422;14.912;2023-10-31T04:58:27;96978.03;;;12.27;100.00
66627;BME280;53498;50.422;14.912;2023-10-31T05:00:53;96986.00;;;12.24;100.00
66627;BME280;53498;50.422;14.912;2023-10-31T05:03:18;96991.31;;;12.21;100.00
66627;BME280;53498;50.422;14.912;2023-10-31T05:05:44;96996.63;;;12.19;100.00
66627;BME280;53498;50.422;14.912;2023-10-31T05:08:09;96995.34;;;12.08;100.00
66627;BME280;53498;50.422;14.912;2023-10-31T05:10:35;97005.44;;;12.15;100.00
66627;BME280;53498;50.422;14.912;2023-10-31T05:13:01;97001.72;;;12.22;100.00
66627;BME280;53498;50.422;14.912;2023-10-31T05:15:29;97014.78;;;12.43;100.00
66627;BME280;53498;50.422;14.912;2023-10-31T05:17:55;97017.72;;;12.13;100.00
66627;BME280;53498;50.422;14.912;2023-10-31T05:20:21;97022.97;;;12.12;100.00
66627;BME280;53498;50.422;14.912;2023-10-31T05:22:46;97035.34;;;12.29;100.00
66627;BME280;53498;50.422;14.912;2023-10-31T05:25:12;97038.56;;;12.13;100.00
66627;BME280;53498;50.422;14.912;2023-10-31T05:27:39;97043.47;;;12.21;100.00
66627;BME280;53498;50.422;14.912;2023-10-31T05:30:05;97048.88;;;12.16;100.00
66627;BME280;53498;50.422;14.912;2023-10-31T05:32:30;97054.25;;;12.34;100.00
66627;BME280;53498;50.422;14.912;2023-10-31T05:34:56;97054.44;;;12.29;100.00
66627;BME280;53498;50.422;14.912;2023-10-31T05:37:22;97057.69;;;12.12;100.00
66627;BME280;53498;50.422;14.912;2023-10-31T05:39:47;97069.72;;;12.16;100.00
66627;BME280;53498;50.422;14.912;2023-10-31T05:42:13;97064.63;;;12.13;100.00
66627;BME280;53498;50.422;14.912;2023-10-31T05:44:39;97072.25;;;12.18;100.00
66627;BME280;53498;50.422;14.912;2023-10-31T05:47:04;97078.19;;;12.21;100.00
66627;BME280;53498;50.422;14.912;2023-10-31T05:49:30;97068.59;;;12.22;100.00
66627;BME280;53498;50.422;14.912;2023-10-31T05:51:56;97088.25;;;12.31;100.00
66627;BME280;53498;50.422;14.912;2023-10-31T05:54:21;97091.00;;;12.27;100.00
66627;BME280;53498;50.422;14.912;2023-10-31T05:56:47;97096.75;;;12.14;100.00
66627;BME280;53498;50.422;14.912;2023-10-31T05:59:12;97105.34;;;12.16;100.00
66627;BME280;53498;50.422;14.912;2023-10-31T06:01:38;97106.47;;;12.32;100.00
66627;BME280;53498;50.422;14.912;2023-10-31T06:04:04;97113.56;;;12.29;100.00
66627;BME280;53498;50.422;14.912;2023-10-31T06:06:32;97105.97;;;12.22;100.00
66627;BME280;53498;50.422;14.912;2023-10-31T06:08:57;97118.38;;;12.16;100.00
66627;BME280;53498;50.422;14.912;2023-10-31T06:11:23;97133.72;;;12.23;100.00
66627;BME280;53498;50.422;14.912;2023-10-31T06:13:48;97132.78;;;12.26;100.00
66627;BME280;53498;50.422;14.912;2023-10-31T06:16:14;97147.34;;;12.32;100.00
66627;BME280;53498;50.422;14.912;2023-10-31T06:18:40;97151.19;;;12.21;100.00
66627;BME280;53498;50.422;14.912;2023-10-31T06:21:06;97151.06;;;12.24;100.00
66627;BME280;53498;50.422;14.912;2023-10-31T06:23:32;97160.03;;;12.17;100.00
66627;BME280;53498;50.422;14.912;2023-10-31T06:25:58;97156.88;;;12.31;100.00
66627;BME280;53498;50.422;14.912;2023-10-31T06:28:23;97159.91;;;12.20;100.00
66627;BME280;53498;50.422;14.912;2023-10-31T06:30:49;97159.13;;;12.42;100.00
66627;BME280;53498;50.422;14.912;2023-10-31T06:33:15;97157.00;;;12.28;100.00
66627;BME280;53498;50.422;14.912;2023-10-31T06:35:40;97164.22;;;12.21;100.00
66627;BME280;53498;50.422;14.912;2023-10-31T06:38:06;97171.69;;;12.31;100.00
66627;BME280;53498;50.422;14.912;2023-10-31T06:40:31;97176.97;;;12.29;100.00
66627;BME280;53498;50.422;14.912;2023-10-31T06:42:57;97183.03;;;12.30;100.00
66627;BME280;53498;50.422;14.912;2023-10-31T06:45:22;97196.75;;;12.35;100.00
66627;BME280;53498;50.422;14.912;2023-10-31T06:47:48;97191.66;;;12.32;100.00
66627;BME280;53498;50.422;14.912;2023-10-31T06:50:14;97194.69;;;12.43;100.00
66627;BME280;53498;50.422;14.912;2023-10-31T06:52:39;97195.03;;;12.34;100.00
66627;BME280;53498;50.422;14.912;2023-10-31T06:55:05;97211.38;;;12.39;100.00
66627;BME280;53498;50.422;14.912;2023-10-31T06:57:31;97210.13;;;12.49;100.00
66627;BME280;53498;50.422;14.912;2023-10-31T06:59:56;97212.22;;;12.39;100.00
66627;BME280;53498;50.422;14.912;2023-10-31T07:02:22;97205.31;;;12.38;100.00
66627;BME280;53498;50.422;14.912;2023-10-31T07:04:47;97211.16;;;12.45;100.00
66627;BME280;53498;50.422;14.912;2023-10-31T07:07:14;97208.59;;;12.43;100.00
66627;BME280;53498;50.422;14.912;2023-10-31T07:09:40;97211.81;;;12.50;100.00
66627;BME280;53498;50.422;14.912;2023-10-31T07:12:06;97204.69;;;12.55;100.00
66627;BME280;53498;50.422;14.912;2023-10-31T07:14:31;97207.97;;;12.60;100.00
66627;BME280;53498;50.422;14.912;2023-10-31T07:16:57;97220.22;;;12.58;100.00
66627;BME280;53498;50.422;14.912;2023-10-31T07:19:22;97223.75;;;12.57;100.00
66627;BME280;53498;50.422;14.912;2023-10-31T07:21:48;97217.94;;;12.72;100.00
66627;BME280;53498;50.422;14.912;2023-10-31T07:24:13;97223.28;;;12.69;100.00
66627;BME280;53498;50.422;14.912;2023-10-31T07:26:39;97218.09;;;12.68;100.00
66627;BME280;53498;50.422;14.912;2023-10-31T07:29:05;97210.38;;;12.65;100.00
66627;BME280;53498;50.422;14.912;2023-10-31T07:31:30;97210.13;;;12.72;100.00
66627;BME280;53498;50.422;14.912;2023-10-31T07:33:56;97202.94;;;12.78;100.00
66627;BME280;53498;50.422;14.912;2023-10-31T07:36:22;97212.50;;;12.79;100.00
66627;BME280;53498;50.422;14.912;2023-10-31T07:38:47;97221.41;;;12.73;100.00
66627;BME280;53498;50.422;14.912;2023-10-31T07:41:13;97222.00;;;12.80;100.00
66627;BME280;53498;50.422;14.912;2023-10-31T07:43:39;97228.03;;;12.82;100.00
66627;BME280;53498;50.422;14.912;2023-10-31T07:46:04;97245.53;;;12.78;100.00
66627;BME280;53498;50.422;14.912;2023-10-31T07:48:31;97235.59;;;12.88;100.00
66627;BME280;53498;50.422;14.912;2023-10-31T07:50:57;97229.28;;;12.93;100.00
66627;BME280;53498;50.422;14.912;2023-10-31T07:53:22;97239.84;;;13.12;100.00
66627;BME280;53498;50.422;14.912;2023-10-31T07:55:48;97245.88;;;13.14;100.00
66627;BME280;53498;50.422;14.912;2023-10-31T07:58:14;97254.03;;;13.07;100.00
66627;BME280;53498;50.422;14.912;2023-10-31T08:00:39;97269.63;;;13.08;100.00
66627;BME280;53498;50.422;14.912;2023-10-31T08:03:05;97269.97;;;12.99;100.00
66627;BME280;53498;50.422;14.912;2023-10-31T08:05:30;97288.44;;;12.94;100.00
66627;BME280;53498;50.422;14.912;2023-10-31T08:07:56;97299.25;;;12.84;100.00
66627;BME280;53498;50.422;14.912;2023-10-31T08:10:22;97307.16;;;12.82;100.00
66627;BME280;53498;50.422;14.912;2023-10-31T08:12:47;97309.56;;;12.87;100.00
66627;BME280;53498;50.422;14.912;2023-10-31T08:15:13;97300.31;;;12.78;100.00
66627;BME280;53498;50.422;14.912;2023-10-31T08:17:39;97301.97;;;12.81;100.00
66627;BME280;53498;50.422;14.912;2023-10-31T08:20:05;97301.56;;;12.68;100.00
66627;BME280;53498;50.422;14.912;2023-10-31T08:22:31;97300.72;;;12.67;100.00
66627;BME280;53498;50.422;14.912;2023-10-31T08:24:57;97294.56;;;12.70;100.00
66627;BME280;53498;50.422;14.912;2023-10-31T08:27:22;97287.63;;;12.69;100.00
66627;BME280;53498;50.422;14.912;2023-10-31T08:29:48;97296.84;;;12.79;100.00
66627;BME280;53498;50.422;14.912;2023-10-31T08:32:14;97290.56;;;12.83;100.00
66627;BME280;53498;50.422;14.912;2023-10-31T08:34:39;97290.28;;;12.91;100.00
66627;BME280;53498;50.422;14.912;2023-10-31T08:37:05;97283.25;;;12.93;100.00
66627;BME280;53498;50.422;14.912;2023-10-31T08:39:30;97296.19;;;12.96;100.00
66627;BME280;53498;50.422;14.912;2023-10-31T08:41:57;97308.44;;;12.94;100.00
66627;BME280;53498;50.422;14.912;2023-10-31T08:44:25;97316.47;;;12.88;100.00
66627;BME280;53498;50.422;14.912;2023-10-31T08:46:50;97318.59;;;12.78;100.00
66627;BME280;53498;50.422;14.912;2023-10-31T08:49:16;97347.47;;;12.73;100.00
66627;BME280;53498;50.422;14.912;2023-10-31T08:51:42;97365.22;;;12.87;100.00
66627;BME280;53498;50.422;14.912;2023-10-31T08:54:08;97373.13;;;12.86;100.00
66627;BME280;53498;50.422;14.912;2023-10-31T08:56:34;97391.66;;;12.78;100.00
66627;BME280;53498;50.422;14.912;2023-10-31T08:59:00;97397.09;;;12.72;100.00
66627;BME280;53498;50.422;14.912;2023-10-31T09:01:26;97407.63;;;12.69;100.00
66627;BME280;53498;50.422;14.912;2023-10-31T09:03:52;97414.56;;;12.70;100.00
66627;BME280;53498;50.422;14.912;2023-10-31T09:06:18;97412.84;;;12.69;100.00
66627;BME280;53498;50.422;14.912;2023-10-31T09:08:44;97398.31;;;12.62;100.00
66627;BME280;53498;50.422;14.912;2023-10-31T09:11:09;97395.69;;;12.63;100.00
66627;BME280;53498;50.422;14.912;2023-10-31T09:13:35;97399.66;;;12.73;100.00
66627;BME280;53498;50.422;14.912;2023-10-31T09:16:00;97414.38;;;12.74;100.00
66627;BME280;53498;50.422;14.912;2023-10-31T09:18:26;97419.59;;;12.74;100.00
66627;BME280;53498;50.422;14.912;2023-10-31T09:20:52;97418.66;;;12.77;100.00
66627;BME280;53498;50.422;14.912;2023-10-31T09:23:18;97416.56;;;12.87;100.00
66627;BME280;53498;50.422;14.912;2023-10-31T09:25:44;97426.66;;;12.98;100.00
66627;BME280;53498;50.422;14.912;2023-10-31T09:28:10;97433.25;;;13.06;100.00
66627;BME280;53498;50.422;14.912;2023-10-31T09:30:35;97417.88;;;13.22;100.00
66627;BME280;53498;50.422;14.912;2023-10-31T09:33:01;97423.69;;;13.32;100.00
66627;BME280;53498;50.422;14.912;2023-10-31T09:35:26;97426.72;;;13.43;100.00
66627;BME280;53498;50.422;14.912;2023-10-31T09:37:53;97414.63;;;13.40;100.00
66627;BME280;53498;50.422;14.912;2023-10-31T09:40:19;97413.63;;;13.45;100.00
66627;BME280;53498;50.422;14.912;2023-10-31T09:42:45;97416.78;;;13.53;100.00
66627;BME280;53498;50.422;14.912;2023-10-31T09:45:11;97419.16;;;13.59;100.00
66627;BME280;53498;50.422;14.912;2023-10-31T09:47:39;97412.41;;;13.53;100.00
66627;BME280;53498;50.422;14.912;2023-10-31T09:50:06;97412.97;;;13.61;100.00
66627;BME280;53498;50.422;14.912;2023-10-31T09:52:33;97419.34;;;13.54;100.00
66627;BME280;53498;50.422;14.912;2023-10-31T09:54:59;97416.97;;;13.48;100.00
66627;BME280;53498;50.422;14.912;2023-10-31T09:57:25;97414.47;;;13.45;100.00
66627;BME280;53498;50.422;14.912;2023-10-31T09:59:51;97409.59;;;13.36;100.00
66627;BME280;53498;50.422;14.912;2023-10-31T10:02:17;97411.19;;;13.15;100.00
66627;BME280;53498;50.422;14.912;2023-10-31T10:04:43;97412.97;;;13.14;100.00
66627;BME280;53498;50.422;14.912;2023-10-31T10:07:13;97415.16;;;13.27;100.00
66627;BME280;53498;50.422;14.912;2023-10-31T10:09:40;97419.53;;;13.26;100.00
66627;BME280;53498;50.422;14.912;2023-10-31T10:12:06;97419.13;;;13.37;100.00
66627;BME280;53498;50.422;14.912;2023-10-31T10:14:32;97421.50;;;13.43;100.00
66627;BME280;53498;50.422;14.912;2023-10-31T10:16:58;97419.81;;;13.42;100.00
66627;BME280;53498;50.422;14.912;2023-10-31T10:19:23;97418.09;;;13.41;100.00
66627;BME280;53498;50.422;14.912;2023-10-31T10:24:17;97408.09;;;13.74;98.62
66627;BME280;53498;50.422;14.912;2023-10-31T10:26:43;97412.38;;;13.77;98.40
66627;BME280;53498;50.422;14.912;2023-10-31T10:29:09;97430.41;;;14.05;98.80
66627;BME280;53498;50.422;14.912;2023-10-31T10:31:34;97436.59;;;14.24;95.29
66627;BME280;53498;50.422;14.912;2023-10-31T10:34:00;97426.91;;;14.48;92.83
66627;BME280;53498;50.422;14.912;2023-10-31T10:36:31;97420.25;;;14.62;94.46
66627;BME280;53498;50.422;14.912;2023-10-31T10:38:58;97407.03;;;14.65;92.95
66627;BME280;53498;50.422;14.912;2023-10-31T10:41:26;97404.16;;;14.71;91.18
66627;BME280;53498;50.422;14.912;2023-10-31T10:44:07;97399.72;;;14.73;93.38
66627;BME280;53498;50.422;14.912;2023-10-31T10:46:34;97402.59;;;14.67;86.64
66627;BME280;53498;50.422;14.912;2023-10-31T10:49:03;97403.97;;;14.55;84.37
66627;BME280;53498;50.422;14.912;2023-10-31T10:54:19;97414.59;;;14.08;88.34
66627;BME280;53498;50.422;14.912;2023-10-31T10:56:59;97419.47;;;13.95;89.87
66627;BME280;53498;50.422;14.912;2023-10-31T10:59:55;97421.66;;;13.84;87.17
66627;BME280;53498;50.422;14.912;2023-10-31T11:02:23;97409.78;;;13.97;91.75
66627;BME280;53498;50.422;14.912;2023-10-31T11:04:49;97410.59;;;13.99;91.00
66627;BME280;53498;50.422;14.912;2023-10-31T11:07:16;97405.50;;;13.96;88.49
66627;BME280;53498;50.422;14.912;2023-10-31T11:09:43;97408.06;;;13.98;90.88
66627;BME280;53498;50.422;14.912;2023-10-31T11:12:11;97424.97;;;13.89;86.40
66627;BME280;53498;50.422;14.912;2023-10-31T11:14:39;97455.13;;;13.98;85.62
66627;BME280;53498;50.422;14.912;2023-10-31T11:17:13;97471.03;;;13.92;87.11
66627;BME280;53498;50.422;14.912;2023-10-31T11:19:40;97472.00;;;13.89;87.42
66627;BME280;53498;50.422;14.912;2023-10-31T11:22:06;97476.06;;;13.74;87.44
66627;BME280;53498;50.422;14.912;2023-10-31T11:24:33;97481.34;;;13.73;88.41
66627;BME280;53498;50.422;14.912;2023-10-31T11:27:03;97480.72;;;13.66;88.85
66627;BME280;53498;50.422;14.912;2023-10-31T11:29:31;97473.78;;;13.65;90.57
66627;BME280;53498;50.422;14.912;2023-10-31T11:31:57;97465.25;;;13.60;91.16
66627;BME280;53498;50.422;14.912;2023-10-31T11:34:23;97470.91;;;13.73;94.39
66627;BME280;53498;50.422;14.912;2023-10-31T11:36:50;97474.28;;;13.75;88.88
66627;BME280;53498;50.422;14.912;2023-10-31T11:39:19;97472.97;;;13.63;89.02
66627;BME280;53498;50.422;14.912;2023-10-31T11:41:55;97481.19;;;13.54;89.01
66627;BME280;53498;50.422;14.912;2023-10-31T11:44:27;97502.84;;;13.57;89.80
66627;BME280;53498;50.422;14.912;2023-10-31T11:46:53;97512.00;;;13.44;88.64
66627;BME280;53498;50.422;14.912;2023-10-31T11:49:47;97513.50;;;13.51;91.75
66627;BME280;53498;50.422;14.912;2023-10-31T11:52:16;97515.53;;;13.43;88.96
66627;BME280;53498;50.422;14.912;2023-10-31T11:54:42;97516.09;;;13.28;91.50
66627;BME280;53498;50.422;14.912;2023-10-31T11:57:08;97516.09;;;13.28;91.87
66627;BME280;53498;50.422;14.912;2023-10-31T11:59:38;97506.59;;;13.25;92.53
66627;BME280;53498;50.422;14.912;2023-10-31T12:02:16;97503.28;;;13.20;93.84
66627;BME280;53498;50.422;14.912;2023-10-31T12:04:42;97509.34;;;13.20;94.83
66627;BME280;53498;50.422;14.912;2023-10-31T12:07:08;97514.22;;;13.31;99.35
66627;BME280;53498;50.422;14.912;2023-10-31T12:09:48;97519.69;;;13.24;94.91
66627;BME280;53498;50.422;14.912;2023-10-31T12:12:14;97523.06;;;13.27;95.74
66627;BME280;53498;50.422;14.912;2023-10-31T12:14:40;97539.69;;;13.25;94.14
66627;BME280;53498;50.422;14.912;2023-10-31T12:17:06;97532.78;;;13.22;94.02
66627;BME280;53498;50.422;14.912;2023-10-31T12:19:32;97538.88;;;13.23;94.47
66627;BME280;53498;50.422;14.912;2023-10-31T12:21:58;97540.56;;;13.24;94.06
66627;BME280;53498;50.422;14.912;2023-10-31T12:24:24;97535.22;;;13.28;97.99
66627;BME280;53498;50.422;14.912;2023-10-31T12:26:50;97538.44;;;13.10;94.33
66627;BME280;53498;50.422;14.912;2023-10-31T12:29:17;97535.66;;;13.14;95.90
66627;BME280;53498;50.422;14.912;2023-10-31T12:34:10;97537.16;;;13.22;97.76
66627;BME280;53498;50.422;14.912;2023-10-31T12:36:40;97541.94;;;13.09;96.26
66627;BME280;53498;50.422;14.912;2023-10-31T12:39:09;97544.53;;;13.10;97.02
66627;BME280;53498;50.422;14.912;2023-10-31T12:41:39;97539.25;;;13.12;98.45
66627;BME280;53498;50.422;14.912;2023-10-31T12:44:06;97534.97;;;13.09;97.14
66627;BME280;53498;50.422;14.912;2023-10-31T12:46:39;97539.94;;;12.92;95.70